sensor_id;sensor_type;location;lat;lon;timestamp;P1;durP1;ratioP1;P2;durP2;ratioP2
35084;SDS011;21267;51.032;6.998;2024-02-28T00:01:02;80.97;;;41.97;;
35084;SDS011;21267;51.032;6.998;2024-02-28T00:03:29;80.60;;;40.00;;
35084;SDS011;21267;51.032;6.998;2024-02-28T00:05:58;74.72;;;40.13;;
35084;SDS011;21267;51.032;6.998;2024-02-28T00:08:25;80.73;;;41.57;;
35084;SDS011;21267;51.032;6.998;2024-02-28T00:10:52;82.97;;;41.50;;
35084;SDS011;21267;51.032;6.998;2024-02-28T00:15:49;79.75;;;39.25;;
35084;SDS011;21267;51.032;6.998;2024-02-28T00:18:16;83.65;;;39.90;;
35084;SDS011;21267;51.032;6.998;2024-02-28T00:20:44;80.73;;;40.17;;
35084;SDS011;21267;51.032;6.998;2024-02-28T00:23:11;76.03;;;39.50;;
35084;SDS011;21267;51.032;6.998;2024-02-28T00:25:39;74.90;;;40.38;;
35084;SDS011;21267;51.032;6.998;2024-02-28T00:28:06;71.57;;;39.08;;
35084;SDS011;21267;51.032;6.998;2024-02-28T00:30:34;74.28;;;39.50;;
35084;SDS011;21267;51.032;6.998;2024-02-28T00:33:03;70.88;;;37.53;;
35084;SDS011;21267;51.032;6.998;2024-02-28T00:35:31;66.53;;;37.93;;
35084;SDS011;21267;51.032;6.998;2024-02-28T00:38:00;70.40;;;39.25;;
35084;SDS011;21267;51.032;6.998;2024-02-28T00:40:27;71.50;;;38.55;;
35084;SDS011;21267;51.032;6.998;2024-02-28T00:42:55;66.65;;;37.03;;
35084;SDS011;21267;51.032;6.998;2024-02-28T00:45:22;68.60;;;38.17;;
35084;SDS011;21267;51.032;6.998;2024-02-28T00:47:49;66.43;;;37.47;;
35084;SDS011;21267;51.032;6.998;2024-02-28T00:50:16;69.20;;;37.80;;
35084;SDS011;21267;51.032;6.998;2024-02-28T00:52:43;69.05;;;38.00;;
35084;SDS011;21267;51.032;6.998;2024-02-28T00:55:09;73.70;;;38.97;;
35084;SDS011;21267;51.032;6.998;2024-02-28T01:01:38;66.22;;;37.30;;
35084;SDS011;21267;51.032;6.998;2024-02-28T01:04:05;65.67;;;38.37;;
35084;SDS011;21267;51.032;6.998;2024-02-28T01:06:32;63.00;;;35.72;;
35084;SDS011;21267;51.032;6.998;2024-02-28T01:08:59;68.67;;;38.97;;
35084;SDS011;21267;51.032;6.998;2024-02-28T01:11:26;67.50;;;36.90;;
35084;SDS011;21267;51.032;6.998;2024-02-28T01:13:53;65.80;;;38.45;;
35084;SDS011;21267;51.032;6.998;2024-02-28T01:16:19;61.22;;;36.55;;
35084;SDS011;21267;51.032;6.998;2024-02-28T01:18:46;67.93;;;37.88;;
35084;SDS011;21267;51.032;6.998;2024-02-28T01:21:13;64.03;;;36.90;;
35084;SDS011;21267;51.032;6.998;2024-02-28T01:23:40;57.70;;;33.70;;
35084;SDS011;21267;51.032;6.998;2024-02-28T01:26:07;71.38;;;38.28;;
35084;SDS011;21267;51.032;6.998;2024-02-28T01:28:34;61.28;;;33.92;;
35084;SDS011;21267;51.032;6.998;2024-02-28T01:31:01;57.00;;;32.03;;
35084;SDS011;21267;51.032;6.998;2024-02-28T01:33:28;50.50;;;29.05;;
35084;SDS011;21267;51.032;6.998;2024-02-28T01:35:55;51.55;;;28.27;;
35084;SDS011;21267;51.032;6.998;2024-02-28T01:38:25;48.03;;;28.10;;
35084;SDS011;21267;51.032;6.998;2024-02-28T01:40:53;50.63;;;26.92;;
35084;SDS011;21267;51.032;6.998;2024-02-28T01:43:20;56.67;;;30.90;;
35084;SDS011;21267;51.032;6.998;2024-02-28T01:45:46;55.53;;;29.77;;
35084;SDS011;21267;51.032;6.998;2024-02-28T01:48:13;59.20;;;30.80;;
35084;SDS011;21267;51.032;6.998;2024-02-28T01:50:41;56.17;;;33.13;;
35084;SDS011;21267;51.032;6.998;2024-02-28T01:53:09;57.28;;;32.30;;
35084;SDS011;21267;51.032;6.998;2024-02-28T01:55:38;57.17;;;32.72;;
35084;SDS011;21267;51.032;6.998;2024-02-28T01:58:05;61.65;;;33.83;;
35084;SDS011;21267;51.032;6.998;2024-02-28T02:00:35;62.28;;;32.80;;
35084;SDS011;21267;51.032;6.998;2024-02-28T02:03:04;64.18;;;33.67;;
35084;SDS011;21267;51.032;6.998;2024-02-28T02:05:31;67.90;;;33.53;;
35084;SDS011;21267;51.032;6.998;2024-02-28T02:07:58;72.18;;;36.38;;
35084;SDS011;21267;51.032;6.998;2024-02-28T02:10:25;59.95;;;32.85;;
35084;SDS011;21267;51.032;6.998;2024-02-28T02:12:52;50.43;;;26.20;;
35084;SDS011;21267;51.032;6.998;2024-02-28T02:15:19;61.00;;;32.90;;
35084;SDS011;21267;51.032;6.998;2024-02-28T02:17:46;49.50;;;24.90;;
35084;SDS011;21267;51.032;6.998;2024-02-28T02:20:14;61.80;;;32.00;;
35084;SDS011;21267;51.032;6.998;2024-02-28T02:22:42;62.58;;;34.05;;
35084;SDS011;21267;51.032;6.998;2024-02-28T02:25:09;44.58;;;22.90;;
35084;SDS011;21267;51.032;6.998;2024-02-28T02:27:36;63.70;;;34.77;;
35084;SDS011;21267;51.032;6.998;2024-02-28T02:30:03;61.40;;;33.67;;
35084;SDS011;21267;51.032;6.998;2024-02-28T02:32:30;67.10;;;33.80;;
35084;SDS011;21267;51.032;6.998;2024-02-28T02:34:57;60.15;;;31.33;;
35084;SDS011;21267;51.032;6.998;2024-02-28T02:40:43;58.28;;;32.92;;
35084;SDS011;21267;51.032;6.998;2024-02-28T02:43:10;55.22;;;32.17;;
35084;SDS011;21267;51.032;6.998;2024-02-28T02:45:37;60.50;;;32.53;;
35084;SDS011;21267;51.032;6.998;2024-02-28T02:48:04;59.03;;;32.87;;
35084;SDS011;21267;51.032;6.998;2024-02-28T02:50:31;67.90;;;36.63;;
35084;SDS011;21267;51.032;6.998;2024-02-28T02:52:58;65.05;;;33.97;;
35084;SDS011;21267;51.032;6.998;2024-02-28T02:55:25;64.65;;;33.03;;
35084;SDS011;21267;51.032;6.998;2024-02-28T02:57:52;67.65;;;35.65;;
35084;SDS011;21267;51.032;6.998;2024-02-28T03:00:18;66.90;;;35.45;;
35084;SDS011;21267;51.032;6.998;2024-02-28T03:02:45;52.63;;;28.17;;
35084;SDS011;21267;51.032;6.998;2024-02-28T03:05:12;69.65;;;38.88;;
35084;SDS011;21267;51.032;6.998;2024-02-28T03:07:39;72.35;;;38.35;;
35084;SDS011;21267;51.032;6.998;2024-02-28T03:10:06;76.55;;;39.60;;
35084;SDS011;21267;51.032;6.998;2024-02-28T03:12:33;77.82;;;38.83;;
35084;SDS011;21267;51.032;6.998;2024-02-28T03:15:00;73.17;;;38.47;;
35084;SDS011;21267;51.032;6.998;2024-02-28T03:17:27;70.70;;;38.88;;
35084;SDS011;21267;51.032;6.998;2024-02-28T03:19:54;70.00;;;37.50;;
35084;SDS011;21267;51.032;6.998;2024-02-28T03:22:21;78.85;;;42.55;;
35084;SDS011;21267;51.032;6.998;2024-02-28T03:24:48;82.88;;;44.40;;
35084;SDS011;21267;51.032;6.998;2024-02-28T03:27:15;80.80;;;43.30;;
35084;SDS011;21267;51.032;6.998;2024-02-28T03:29:41;81.25;;;43.65;;
35084;SDS011;21267;51.032;6.998;2024-02-28T03:32:08;80.82;;;42.72;;
35084;SDS011;21267;51.032;6.998;2024-02-28T03:34:35;75.80;;;40.72;;
35084;SDS011;21267;51.032;6.998;2024-02-28T03:37:02;77.97;;;42.75;;
35084;SDS011;21267;51.032;6.998;2024-02-28T03:39:29;77.17;;;43.87;;
35084;SDS011;21267;51.032;6.998;2024-02-28T03:41:56;83.55;;;44.33;;
35084;SDS011;21267;51.032;6.998;2024-02-28T03:44:23;85.63;;;45.43;;
35084;SDS011;21267;51.032;6.998;2024-02-28T03:46:52;86.10;;;44.65;;
35084;SDS011;21267;51.032;6.998;2024-02-28T03:49:19;85.95;;;46.33;;
35084;SDS011;21267;51.032;6.998;2024-02-28T03:51:45;83.07;;;45.20;;
35084;SDS011;21267;51.032;6.998;2024-02-28T03:54:12;65.78;;;35.25;;
35084;SDS011;21267;51.032;6.998;2024-02-28T03:56:39;88.53;;;47.10;;
35084;SDS011;21267;51.032;6.998;2024-02-28T03:59:06;82.93;;;45.45;;
35084;SDS011;21267;51.032;6.998;2024-02-28T04:01:33;82.85;;;46.83;;
35084;SDS011;21267;51.032;6.998;2024-02-28T04:03:59;95.47;;;53.22;;
35084;SDS011;21267;51.032;6.998;2024-02-28T04:06:26;102.28;;;54.70;;
35084;SDS011;21267;51.032;6.998;2024-02-28T04:08:53;89.45;;;49.25;;
35084;SDS011;21267;51.032;6.998;2024-02-28T04:11:20;93.38;;;51.92;;
35084;SDS011;21267;51.032;6.998;2024-02-28T04:13:47;86.53;;;46.30;;
35084;SDS011;21267;51.032;6.998;2024-02-28T04:16:13;99.10;;;53.38;;
35084;SDS011;21267;51.032;6.998;2024-02-28T04:18:40;87.93;;;48.45;;
35084;SDS011;21267;51.032;6.998;2024-02-28T04:21:07;90.38;;;50.38;;
35084;SDS011;21267;51.032;6.998;2024-02-28T04:23:34;100.65;;;54.13;;
35084;SDS011;21267;51.032;6.998;2024-02-28T04:26:01;100.78;;;57.40;;
35084;SDS011;21267;51.032;6.998;2024-02-28T04:28:28;103.10;;;56.27;;
35084;SDS011;21267;51.032;6.998;2024-02-28T04:30:55;95.65;;;55.28;;
35084;SDS011;21267;51.032;6.998;2024-02-28T04:33:22;100.90;;;57.08;;
35084;SDS011;21267;51.032;6.998;2024-02-28T04:35:49;96.40;;;52.23;;
35084;SDS011;21267;51.032;6.998;2024-02-28T04:38:16;92.88;;;53.50;;
35084;SDS011;21267;51.032;6.998;2024-02-28T04:40:43;107.25;;;58.30;;
35084;SDS011;21267;51.032;6.998;2024-02-28T04:43:09;104.28;;;56.78;;
35084;SDS011;21267;51.032;6.998;2024-02-28T04:45:36;96.85;;;50.53;;
35084;SDS011;21267;51.032;6.998;2024-02-28T04:48:04;98.30;;;55.35;;
35084;SDS011;21267;51.032;6.998;2024-02-28T04:50:31;99.22;;;56.28;;
35084;SDS011;21267;51.032;6.998;2024-02-28T04:52:58;109.47;;;58.40;;
35084;SDS011;21267;51.032;6.998;2024-02-28T04:55:25;105.85;;;58.28;;
35084;SDS011;21267;51.032;6.998;2024-02-28T04:57:52;96.05;;;51.50;;
35084;SDS011;21267;51.032;6.998;2024-02-28T05:00:18;100.50;;;54.08;;
35084;SDS011;21267;51.032;6.998;2024-02-28T05:02:45;101.30;;;55.57;;
35084;SDS011;21267;51.032;6.998;2024-02-28T05:05:12;101.45;;;53.40;;
35084;SDS011;21267;51.032;6.998;2024-02-28T05:07:39;89.10;;;41.78;;
35084;SDS011;21267;51.032;6.998;2024-02-28T05:10:06;93.45;;;49.95;;
35084;SDS011;21267;51.032;6.998;2024-02-28T05:12:33;103.88;;;54.50;;
35084;SDS011;21267;51.032;6.998;2024-02-28T05:15:00;78.20;;;39.42;;
35084;SDS011;21267;51.032;6.998;2024-02-28T05:17:27;95.95;;;52.08;;
35084;SDS011;21267;51.032;6.998;2024-02-28T05:19:54;100.80;;;54.60;;
35084;SDS011;21267;51.032;6.998;2024-02-28T05:22:21;103.88;;;56.85;;
35084;SDS011;21267;51.032;6.998;2024-02-28T05:24:47;101.93;;;54.58;;
35084;SDS011;21267;51.032;6.998;2024-02-28T05:27:14;103.57;;;56.27;;
35084;SDS011;21267;51.032;6.998;2024-02-28T05:29:41;104.85;;;56.55;;
35084;SDS011;21267;51.032;6.998;2024-02-28T05:32:09;106.22;;;57.22;;
35084;SDS011;21267;51.032;6.998;2024-02-28T05:34:36;105.95;;;56.28;;
35084;SDS011;21267;51.032;6.998;2024-02-28T05:37:02;106.75;;;56.47;;
35084;SDS011;21267;51.032;6.998;2024-02-28T05:39:29;113.63;;;57.20;;
35084;SDS011;21267;51.032;6.998;2024-02-28T05:41:57;113.60;;;57.33;;
35084;SDS011;21267;51.032;6.998;2024-02-28T05:44:24;111.45;;;58.78;;
35084;SDS011;21267;51.032;6.998;2024-02-28T05:46:51;110.80;;;60.10;;
35084;SDS011;21267;51.032;6.998;2024-02-28T05:49:18;112.30;;;57.55;;
35084;SDS011;21267;51.032;6.998;2024-02-28T05:51:45;112.90;;;57.00;;
35084;SDS011;21267;51.032;6.998;2024-02-28T05:54:14;107.50;;;55.80;;
35084;SDS011;21267;51.032;6.998;2024-02-28T05:56:41;107.68;;;56.50;;
35084;SDS011;21267;51.032;6.998;2024-02-28T05:59:08;116.82;;;60.60;;
35084;SDS011;21267;51.032;6.998;2024-02-28T06:01:35;108.70;;;57.45;;
35084;SDS011;21267;51.032;6.998;2024-02-28T06:04:03;103.63;;;55.87;;
35084;SDS011;21267;51.032;6.998;2024-02-28T06:06:30;101.57;;;56.22;;
35084;SDS011;21267;51.032;6.998;2024-02-28T06:08:57;109.75;;;56.42;;
35084;SDS011;21267;51.032;6.998;2024-02-28T06:11:24;100.73;;;55.33;;
35084;SDS011;21267;51.032;6.998;2024-02-28T06:13:51;110.43;;;55.28;;
35084;SDS011;21267;51.032;6.998;2024-02-28T06:16:18;96.33;;;51.50;;
35084;SDS011;21267;51.032;6.998;2024-02-28T06:18:45;100.63;;;52.77;;
35084;SDS011;21267;51.032;6.998;2024-02-28T06:21:13;113.80;;;57.90;;
35084;SDS011;21267;51.032;6.998;2024-02-28T06:23:41;102.80;;;54.85;;
35084;SDS011;21267;51.032;6.998;2024-02-28T06:26:08;108.93;;;56.72;;
35084;SDS011;21267;51.032;6.998;2024-02-28T06:28:41;97.13;;;51.17;;
35084;SDS011;21267;51.032;6.998;2024-02-28T06:33:43;104.85;;;53.53;;
35084;SDS011;21267;51.032;6.998;2024-02-28T06:36:10;99.20;;;53.78;;
35084;SDS011;21267;51.032;6.998;2024-02-28T06:38:37;103.73;;;53.60;;
35084;SDS011;21267;51.032;6.998;2024-02-28T06:41:04;107.17;;;54.33;;
35084;SDS011;21267;51.032;6.998;2024-02-28T06:43:34;110.00;;;55.37;;
35084;SDS011;21267;51.032;6.998;2024-02-28T06:46:04;114.97;;;56.67;;
35084;SDS011;21267;51.032;6.998;2024-02-28T06:48:31;108.07;;;51.73;;
35084;SDS011;21267;51.032;6.998;2024-02-28T06:50:59;105.68;;;53.72;;
35084;SDS011;21267;51.032;6.998;2024-02-28T06:53:26;82.67;;;42.10;;
35084;SDS011;21267;51.032;6.998;2024-02-28T06:55:56;101.43;;;54.80;;
35084;SDS011;21267;51.032;6.998;2024-02-28T06:58:23;106.27;;;52.87;;
35084;SDS011;21267;51.032;6.998;2024-02-28T07:00:51;100.57;;;49.67;;
35084;SDS011;21267;51.032;6.998;2024-02-28T07:03:21;111.10;;;54.45;;
35084;SDS011;21267;51.032;6.998;2024-02-28T07:05:48;98.93;;;50.75;;
35084;SDS011;21267;51.032;6.998;2024-02-28T07:08:16;105.80;;;52.42;;
35084;SDS011;21267;51.032;6.998;2024-02-28T07:10:42;101.07;;;52.65;;
35084;SDS011;21267;51.032;6.998;2024-02-28T07:13:10;102.88;;;51.83;;
35084;SDS011;21267;51.032;6.998;2024-02-28T07:15:37;99.65;;;52.53;;
35084;SDS011;21267;51.032;6.998;2024-02-28T07:18:05;108.50;;;52.65;;
35084;SDS011;21267;51.032;6.998;2024-02-28T07:20:32;101.15;;;52.97;;
35084;SDS011;21267;51.032;6.998;2024-02-28T07:23:00;95.47;;;51.40;;
35084;SDS011;21267;51.032;6.998;2024-02-28T07:25:27;106.60;;;54.87;;
35084;SDS011;21267;51.032;6.998;2024-02-28T07:27:54;109.82;;;54.60;;
35084;SDS011;21267;51.032;6.998;2024-02-28T07:33:39;101.40;;;53.88;;
35084;SDS011;21267;51.032;6.998;2024-02-28T07:36:06;97.80;;;51.58;;
35084;SDS011;21267;51.032;6.998;2024-02-28T07:38:33;100.47;;;50.35;;
35084;SDS011;21267;51.032;6.998;2024-02-28T07:41:00;102.68;;;52.17;;
35084;SDS011;21267;51.032;6.998;2024-02-28T07:43:27;91.70;;;46.80;;
35084;SDS011;21267;51.032;6.998;2024-02-28T07:48:22;100.93;;;50.73;;
35084;SDS011;21267;51.032;6.998;2024-02-28T07:50:48;98.82;;;49.08;;
35084;SDS011;21267;51.032;6.998;2024-02-28T07:53:16;97.18;;;50.15;;
35084;SDS011;21267;51.032;6.998;2024-02-28T07:55:43;101.72;;;51.50;;
35084;SDS011;21267;51.032;6.998;2024-02-28T07:58:11;102.53;;;52.63;;
35084;SDS011;21267;51.032;6.998;2024-02-28T08:00:38;94.65;;;48.88;;
35084;SDS011;21267;51.032;6.998;2024-02-28T08:03:05;103.00;;;50.10;;
35084;SDS011;21267;51.032;6.998;2024-02-28T08:05:32;98.60;;;51.00;;
35084;SDS011;21267;51.032;6.998;2024-02-28T08:08:04;101.45;;;49.97;;
35084;SDS011;21267;51.032;6.998;2024-02-28T08:10:34;99.57;;;50.63;;
35084;SDS011;21267;51.032;6.998;2024-02-28T08:13:01;105.43;;;52.17;;
35084;SDS011;21267;51.032;6.998;2024-02-28T08:15:29;97.83;;;51.10;;
35084;SDS011;21267;51.032;6.998;2024-02-28T08:17:56;97.63;;;50.97;;
35084;SDS011;21267;51.032;6.998;2024-02-28T08:20:23;93.13;;;49.50;;
35084;SDS011;21267;51.032;6.998;2024-02-28T08:22:50;91.80;;;50.40;;
35084;SDS011;21267;51.032;6.998;2024-02-28T08:25:19;103.13;;;52.92;;
35084;SDS011;21267;51.032;6.998;2024-02-28T08:27:46;97.38;;;50.80;;
35084;SDS011;21267;51.032;6.998;2024-02-28T08:30:12;97.32;;;51.70;;
35084;SDS011;21267;51.032;6.998;2024-02-28T08:32:40;98.20;;;50.47;;
35084;SDS011;21267;51.032;6.998;2024-02-28T08:37:35;98.35;;;48.95;;
35084;SDS011;21267;51.032;6.998;2024-02-28T08:40:02;97.78;;;51.03;;
35084;SDS011;21267;51.032;6.998;2024-02-28T08:42:29;96.55;;;50.72;;
35084;SDS011;21267;51.032;6.998;2024-02-28T08:44:56;88.90;;;46.63;;
35084;SDS011;21267;51.032;6.998;2024-02-28T08:47:23;98.47;;;49.50;;
35084;SDS011;21267;51.032;6.998;2024-02-28T08:49:51;100.32;;;51.72;;
35084;SDS011;21267;51.032;6.998;2024-02-28T08:52:18;89.15;;;45.63;;
35084;SDS011;21267;51.032;6.998;2024-02-28T08:54:45;98.03;;;51.33;;
35084;SDS011;21267;51.032;6.998;2024-02-28T08:57:12;86.87;;;44.90;;
35084;SDS011;21267;51.032;6.998;2024-02-28T08:59:40;87.18;;;48.97;;
35084;SDS011;21267;51.032;6.998;2024-02-28T09:02:07;90.68;;;48.90;;
35084;SDS011;21267;51.032;6.998;2024-02-28T09:04:35;83.97;;;45.60;;
35084;SDS011;21267;51.032;6.998;2024-02-28T09:07:01;88.15;;;45.00;;
35084;SDS011;21267;51.032;6.998;2024-02-28T09:09:29;87.40;;;49.33;;
35084;SDS011;21267;51.032;6.998;2024-02-28T09:11:58;82.18;;;46.70;;
35084;SDS011;21267;51.032;6.998;2024-02-28T09:14:26;86.00;;;48.50;;
35084;SDS011;21267;51.032;6.998;2024-02-28T09:16:53;90.93;;;47.72;;
35084;SDS011;21267;51.032;6.998;2024-02-28T09:19:22;84.05;;;47.58;;
35084;SDS011;21267;51.032;6.998;2024-02-28T09:21:49;82.05;;;44.95;;
35084;SDS011;21267;51.032;6.998;2024-02-28T09:24:16;77.45;;;46.30;;
35084;SDS011;21267;51.032;6.998;2024-02-28T09:26:43;76.47;;;44.20;;
35084;SDS011;21267;51.032;6.998;2024-02-28T09:29:10;78.05;;;46.70;;
35084;SDS011;21267;51.032;6.998;2024-02-28T09:31:37;75.83;;;43.13;;
35084;SDS011;21267;51.032;6.998;2024-02-28T09:34:04;80.10;;;46.85;;
35084;SDS011;21267;51.032;6.998;2024-02-28T09:36:40;76.78;;;44.88;;
35084;SDS011;21267;51.032;6.998;2024-02-28T09:39:16;77.00;;;46.03;;
35084;SDS011;21267;51.032;6.998;2024-02-28T09:41:43;72.63;;;43.60;;
35084;SDS011;21267;51.032;6.998;2024-02-28T09:44:13;77.18;;;45.38;;
35084;SDS011;21267;51.032;6.998;2024-02-28T09:46:43;75.53;;;44.55;;
35084;SDS011;21267;51.032;6.998;2024-02-28T09:49:10;76.90;;;45.65;;
35084;SDS011;21267;51.032;6.998;2024-02-28T09:51:37;69.03;;;42.97;;
35084;SDS011;21267;51.032;6.998;2024-02-28T09:54:04;72.57;;;43.08;;
35084;SDS011;21267;51.032;6.998;2024-02-28T09:58:59;65.60;;;40.63;;
35084;SDS011;21267;51.032;6.998;2024-02-28T10:01:29;62.58;;;36.50;;
35084;SDS011;21267;51.032;6.998;2024-02-28T10:03:57;69.93;;;42.90;;
35084;SDS011;21267;51.032;6.998;2024-02-28T10:06:27;71.15;;;43.72;;
35084;SDS011;21267;51.032;6.998;2024-02-28T10:08:54;61.73;;;39.93;;
35084;SDS011;21267;51.032;6.998;2024-02-28T10:11:21;67.03;;;40.30;;
35084;SDS011;21267;51.032;6.998;2024-02-28T10:13:49;59.30;;;35.65;;
35084;SDS011;21267;51.032;6.998;2024-02-28T10:16:16;62.13;;;39.47;;
35084;SDS011;21267;51.032;6.998;2024-02-28T10:18:43;64.07;;;38.70;;
35084;SDS011;21267;51.032;6.998;2024-02-28T10:21:11;68.35;;;41.17;;
35084;SDS011;21267;51.032;6.998;2024-02-28T10:23:41;59.92;;;38.38;;
35084;SDS011;21267;51.032;6.998;2024-02-28T10:26:09;57.88;;;37.13;;
35084;SDS011;21267;51.032;6.998;2024-02-28T10:28:37;64.97;;;38.03;;
35084;SDS011;21267;51.032;6.998;2024-02-28T10:31:07;57.88;;;37.47;;
35084;SDS011;21267;51.032;6.998;2024-02-28T10:33:35;56.38;;;35.28;;
35084;SDS011;21267;51.032;6.998;2024-02-28T10:36:03;55.17;;;33.67;;
35084;SDS011;21267;51.032;6.998;2024-02-28T10:38:31;56.10;;;36.88;;
35084;SDS011;21267;51.032;6.998;2024-02-28T10:41:05;54.10;;;32.17;;
35084;SDS011;21267;51.032;6.998;2024-02-28T10:43:36;57.90;;;37.20;;
35084;SDS011;21267;51.032;6.998;2024-02-28T10:46:05;56.30;;;35.38;;
35084;SDS011;21267;51.032;6.998;2024-02-28T10:48:54;55.20;;;33.00;;
35084;SDS011;21267;51.032;6.998;2024-02-28T10:51:23;56.05;;;36.75;;
35084;SDS011;21267;51.032;6.998;2024-02-28T10:54:09;53.33;;;34.72;;
35084;SDS011;21267;51.032;6.998;2024-02-28T10:56:39;54.03;;;36.47;;
35084;SDS011;21267;51.032;6.998;2024-02-28T10:59:08;58.38;;;37.83;;
35084;SDS011;21267;51.032;6.998;2024-02-28T11:01:46;52.47;;;34.33;;
35084;SDS011;21267;51.032;6.998;2024-02-28T11:04:17;52.90;;;32.80;;
35084;SDS011;21267;51.032;6.998;2024-02-28T11:06:48;51.92;;;34.90;;
35084;SDS011;21267;51.032;6.998;2024-02-28T11:09:23;49.83;;;34.00;;
35084;SDS011;21267;51.032;6.998;2024-02-28T11:11:55;54.30;;;36.00;;
35084;SDS011;21267;51.032;6.998;2024-02-28T11:17:02;54.33;;;34.83;;
35084;SDS011;21267;51.032;6.998;2024-02-28T11:22:00;50.85;;;34.03;;
35084;SDS011;21267;51.032;6.998;2024-02-28T11:26:57;54.38;;;35.70;;
35084;SDS011;21267;51.032;6.998;2024-02-28T11:29:24;52.17;;;36.50;;
35084;SDS011;21267;51.032;6.998;2024-02-28T11:31:52;52.90;;;34.75;;
35084;SDS011;21267;51.032;6.998;2024-02-28T11:34:20;53.17;;;34.08;;
35084;SDS011;21267;51.032;6.998;2024-02-28T11:36:48;56.90;;;35.30;;
35084;SDS011;21267;51.032;6.998;2024-02-28T11:39:16;52.38;;;34.30;;
35084;SDS011;21267;51.032;6.998;2024-02-28T11:41:44;48.40;;;32.35;;
35084;SDS011;21267;51.032;6.998;2024-02-28T11:44:15;51.33;;;32.20;;
35084;SDS011;21267;51.032;6.998;2024-02-28T11:46:43;48.08;;;34.05;;
35084;SDS011;21267;51.032;6.998;2024-02-28T11:49:13;49.58;;;34.45;;
35084;SDS011;21267;51.032;6.998;2024-02-28T11:51:41;56.85;;;36.05;;
35084;SDS011;21267;51.032;6.998;2024-02-28T11:54:11;46.25;;;31.38;;
35084;SDS011;21267;51.032;6.998;2024-02-28T11:56:38;49.53;;;31.63;;
35084;SDS011;21267;51.032;6.998;2024-02-28T11:59:07;46.63;;;33.50;;
35084;SDS011;21267;51.032;6.998;2024-02-28T12:01:38;43.30;;;30.58;;
35084;SDS011;21267;51.032;6.998;2024-02-28T12:04:07;41.65;;;30.27;;
35084;SDS011;21267;51.032;6.998;2024-02-28T12:06:34;37.97;;;26.00;;
35084;SDS011;21267;51.032;6.998;2024-02-28T12:09:04;43.30;;;31.05;;
35084;SDS011;21267;51.032;6.998;2024-02-28T12:11:36;37.38;;;26.42;;
35084;SDS011;21267;51.032;6.998;2024-02-28T12:14:04;41.65;;;29.75;;
35084;SDS011;21267;51.032;6.998;2024-02-28T12:16:41;39.00;;;27.80;;
35084;SDS011;21267;51.032;6.998;2024-02-28T12:19:12;43.78;;;29.83;;
35084;SDS011;21267;51.032;6.998;2024-02-28T12:21:39;45.45;;;31.17;;
35084;SDS011;21267;51.032;6.998;2024-02-28T12:24:07;45.13;;;29.17;;
35084;SDS011;21267;51.032;6.998;2024-02-28T12:26:36;40.67;;;29.65;;
35084;SDS011;21267;51.032;6.998;2024-02-28T12:31:30;44.40;;;29.63;;
35084;SDS011;21267;51.032;6.998;2024-02-28T12:33:57;43.87;;;29.77;;
35084;SDS011;21267;51.032;6.998;2024-02-28T12:36:24;42.20;;;29.13;;
35084;SDS011;21267;51.032;6.998;2024-02-28T12:38:51;39.63;;;28.50;;
35084;SDS011;21267;51.032;6.998;2024-02-28T12:41:18;48.38;;;30.63;;
35084;SDS011;21267;51.032;6.998;2024-02-28T12:43:45;43.40;;;30.17;;
35084;SDS011;21267;51.032;6.998;2024-02-28T12:46:12;41.38;;;29.67;;
35084;SDS011;21267;51.032;6.998;2024-02-28T12:48:39;38.70;;;28.77;;
35084;SDS011;21267;51.032;6.998;2024-02-28T12:51:08;42.50;;;29.85;;
35084;SDS011;21267;51.032;6.998;2024-02-28T12:53:37;38.78;;;26.50;;
35084;SDS011;21267;51.032;6.998;2024-02-28T12:56:04;37.85;;;27.75;;
35084;SDS011;21267;51.032;6.998;2024-02-28T12:58:31;37.05;;;27.73;;
35084;SDS011;21267;51.032;6.998;2024-02-28T13:00:58;40.03;;;26.03;;
35084;SDS011;21267;51.032;6.998;2024-02-28T13:03:25;36.30;;;27.70;;
35084;SDS011;21267;51.032;6.998;2024-02-28T13:05:52;37.47;;;28.10;;
35084;SDS011;21267;51.032;6.998;2024-02-28T13:08:19;33.53;;;24.80;;
35084;SDS011;21267;51.032;6.998;2024-02-28T13:10:46;36.40;;;27.33;;
35084;SDS011;21267;51.032;6.998;2024-02-28T13:13:13;38.83;;;27.10;;
35084;SDS011;21267;51.032;6.998;2024-02-28T13:15:40;32.97;;;25.17;;
35084;SDS011;21267;51.032;6.998;2024-02-28T13:18:08;33.05;;;24.65;;
35084;SDS011;21267;51.032;6.998;2024-02-28T13:20:37;36.97;;;25.83;;
35084;SDS011;21267;51.032;6.998;2024-02-28T13:23:04;42.65;;;26.58;;
35084;SDS011;21267;51.032;6.998;2024-02-28T13:25:31;37.13;;;25.47;;
35084;SDS011;21267;51.032;6.998;2024-02-28T13:27:58;30.80;;;23.60;;
35084;SDS011;21267;51.032;6.998;2024-02-28T13:30:25;31.08;;;22.38;;
35084;SDS011;21267;51.032;6.998;2024-02-28T13:32:52;25.73;;;19.13;;
35084;SDS011;21267;51.032;6.998;2024-02-28T13:35:21;28.87;;;20.63;;
35084;SDS011;21267;51.032;6.998;2024-02-28T13:37:48;30.65;;;22.50;;
35084;SDS011;21267;51.032;6.998;2024-02-28T13:40:15;26.43;;;19.97;;
35084;SDS011;21267;51.032;6.998;2024-02-28T13:42:42;28.67;;;21.97;;
35084;SDS011;21267;51.032;6.998;2024-02-28T13:45:09;29.90;;;21.97;;
35084;SDS011;21267;51.032;6.998;2024-02-28T13:47:37;32.83;;;23.50;;
35084;SDS011;21267;51.032;6.998;2024-02-28T13:50:04;45.35;;;33.40;;
35084;SDS011;21267;51.032;6.998;2024-02-28T13:52:31;33.85;;;24.52;;
35084;SDS011;21267;51.032;6.998;2024-02-28T13:54:58;31.03;;;21.87;;
35084;SDS011;21267;51.032;6.998;2024-02-28T13:57:25;31.63;;;20.67;;
35084;SDS011;21267;51.032;6.998;2024-02-28T13:59:52;37.27;;;23.47;;
35084;SDS011;21267;51.032;6.998;2024-02-28T14:02:21;30.25;;;22.25;;
35084;SDS011;21267;51.032;6.998;2024-02-28T14:04:49;30.67;;;21.83;;
35084;SDS011;21267;51.032;6.998;2024-02-28T14:07:18;30.38;;;22.77;;
35084;SDS011;21267;51.032;6.998;2024-02-28T14:09:45;29.63;;;20.52;;
35084;SDS011;21267;51.032;6.998;2024-02-28T14:12:12;26.42;;;18.55;;
35084;SDS011;21267;51.032;6.998;2024-02-28T14:14:40;35.00;;;24.90;;
35084;SDS011;21267;51.032;6.998;2024-02-28T14:17:07;22.93;;;15.77;;
35084;SDS011;21267;51.032;6.998;2024-02-28T14:19:33;25.53;;;15.97;;
35084;SDS011;21267;51.032;6.998;2024-02-28T14:22:02;20.05;;;14.35;;
35084;SDS011;21267;51.032;6.998;2024-02-28T14:24:30;22.23;;;15.57;;
35084;SDS011;21267;51.032;6.998;2024-02-28T14:26:57;22.87;;;15.27;;
35084;SDS011;21267;51.032;6.998;2024-02-28T14:29:24;27.83;;;18.17;;
35084;SDS011;21267;51.032;6.998;2024-02-28T14:31:52;27.42;;;17.60;;
35084;SDS011;21267;51.032;6.998;2024-02-28T14:34:19;22.30;;;13.60;;
35084;SDS011;21267;51.032;6.998;2024-02-28T14:36:48;22.80;;;14.80;;
35084;SDS011;21267;51.032;6.998;2024-02-28T14:39:15;19.73;;;13.67;;
35084;SDS011;21267;51.032;6.998;2024-02-28T14:41:43;20.13;;;14.00;;
35084;SDS011;21267;51.032;6.998;2024-02-28T14:44:13;24.02;;;16.52;;
35084;SDS011;21267;51.032;6.998;2024-02-28T14:46:42;23.75;;;16.27;;
35084;SDS011;21267;51.032;6.998;2024-02-28T14:49:09;25.85;;;17.30;;
35084;SDS011;21267;51.032;6.998;2024-02-28T14:51:36;27.58;;;19.38;;
35084;SDS011;21267;51.032;6.998;2024-02-28T14:54:05;28.08;;;19.00;;